Time;durP1;ratioP1;P1;durP2;ratioP2;P2;SDS_P1;SDS_P2;PMS_P1;PMS_P2;Temp;Humidity;BMP_temperature;BMP_pressure;BME280_temperature;BME280_humidity;BME280_pressure;Samples;Min_cycle;Max_cycle;Signal;HPM_P1;HPM_P2
2021/09/11 00:01:57;;;;;;;1.90;1.70;;;25.80;64.70;;;;;;5120386;27;20201;-66
2021/09/11 00:04:29;;;;;;;1.50;1.40;;;25.80;64.70;;;;;;5091950;28;20513;-66
2021/09/11 00:07:00;;;;;;;1.67;1.50;;;25.80;64.70;;;;;;5121015;27;20216;-66
2021/09/11 00:09:33;;;;;;;3.07;1.60;;;25.80;64.70;;;;;;5109699;27;20216;-66
2021/09/11 00:12:04;;;;;;;1.60;1.50;;;25.80;64.80;;;;;;5109521;28;20671;-66
2021/09/11 00:14:38;;;;;;;1.60;1.50;;;25.80;64.80;;;;;;5090414;28;20301;-66
2021/09/11 00:17:10;;;;;;;1.40;1.30;;;25.80;64.90;;;;;;5085957;28;20204;-66
2021/09/11 00:19:41;;;;;;;1.83;1.60;;;25.70;64.90;;;;;;5106855;27;20212;-67
2021/09/11 00:22:13;;;;;;;1.57;1.47;;;25.70;64.90;;;;;;5107751;27;20208;-66
2021/09/11 00:24:42;;;;;;;1.43;1.33;;;25.70;64.90;;;;;;5109401;27;20821;-66
2021/09/11 00:27:13;;;;;;;1.63;1.40;;;25.70;64.90;;;;;;5084717;27;20219;-66
2021/09/11 00:29:44;;;;;;;2.40;1.40;;;25.70;65.00;;;;;;5105073;27;20555;-66
2021/09/11 00:32:13;;;;;;;1.50;1.40;;;25.70;65.00;;;;;;5106485;27;20200;-66
2021/09/11 00:34:43;;;;;;;1.73;1.50;;;25.70;65.10;;;;;;5076421;27;20211;-66
2021/09/11 00:37:11;;;;;;;1.90;1.50;;;25.70;65.10;;;;;;5086974;28;20200;-66
2021/09/11 00:39:39;;;;;;;2.10;1.40;;;25.70;65.10;;;;;;5107366;27;20195;-66
2021/09/11 00:42:09;;;;;;;2.83;1.80;;;25.70;65.10;;;;;;5107097;27;20197;-66
2021/09/11 00:44:41;;;;;;;2.17;1.70;;;25.70;65.10;;;;;;5095196;28;20259;-66
2021/09/11 00:47:10;;;;;;;1.70;1.60;;;25.70;65.20;;;;;;5108872;27;20216;-66
2021/09/11 00:49:41;;;;;;;2.20;1.50;;;25.70;65.20;;;;;;5095203;28;20205;-66
2021/09/11 00:52:13;;;;;;;2.07;1.80;;;25.70;65.20;;;;;;5098836;27;20226;-66
2021/09/11 00:54:42;;;;;;;1.90;1.60;;;25.70;65.20;;;;;;5083282;28;20204;-66
2021/09/11 00:57:19;;;;;;;1.67;1.57;;;25.60;65.20;;;;;;5073616;28;20614;-66
2021/09/11 00:59:55;;;;;;;2.23;1.60;;;25.70;65.30;;;;;;5084021;28;20197;-66
2021/09/11 01:02:22;;;;;;;1.50;1.40;;;25.60;65.20;;;;;;5088575;28;20703;-66
2021/09/11 01:04:54;;;;;;;2.10;1.90;;;25.60;65.20;;;;;;5080564;28;20592;-66
2021/09/11 01:07:28;;;;;;;2.00;1.83;;;25.70;65.30;;;;;;5074047;28;20209;-66
2021/09/11 01:10:01;;;;;;;2.33;1.57;;;25.60;65.20;;;;;;5088194;28;20557;-66
2021/09/11 01:12:29;;;;;;;2.43;1.70;;;25.60;65.20;;;;;;5087466;28;20223;-66
2021/09/11 01:15:05;;;;;;;1.90;1.80;;;25.60;65.20;;;;;;5070606;28;20743;-66
2021/09/11 01:17:39;;;;;;;2.33;1.80;;;25.60;65.20;;;;;;5065297;28;20193;-66
2021/09/11 01:20:12;;;;;;;2.20;2.00;;;25.60;65.30;;;;;;5072650;28;20210;-66
2021/09/11 01:22:42;;;;;;;1.67;1.57;;;25.60;65.20;;;;;;5072730;28;20561;-66
2021/09/11 01:25:13;;;;;;;1.80;1.53;;;25.60;65.20;;;;;;5088521;28;20205;-66
2021/09/11 01:27:44;;;;;;;2.13;1.90;;;25.60;65.30;;;;;;5084903;28;20650;-67
2021/09/11 01:30:17;;;;;;;2.13;1.70;;;25.60;65.30;;;;;;5067282;28;20197;-66
2021/09/11 01:32:58;;;;;;;1.90;1.60;;;25.60;65.30;;;;;;5069707;28;20214;-66
2021/09/11 01:35:28;;;;;;;1.80;1.70;;;25.60;65.20;;;;;;5091904;28;20211;-66
2021/09/11 01:38:04;;;;;;;1.60;1.50;;;25.50;65.20;;;;;;5083998;28;20193;-66
2021/09/11 01:40:35;;;;;;;2.13;1.90;;;25.60;65.20;;;;;;5079937;28;20197;-66
2021/09/11 01:43:07;;;;;;;3.80;1.93;;;25.60;65.30;;;;;;5085925;28;20203;-65
2021/09/11 01:45:37;;;;;;;2.00;1.80;;;25.50;65.20;;;;;;5071690;28;20283;-66
2021/09/11 01:48:06;;;;;;;1.90;1.80;;;25.60;65.20;;;;;;5088502;28;20200;-66
2021/09/11 01:50:38;;;;;;;1.77;1.60;;;25.50;65.20;;;;;;5092128;28;20205;-66
2021/09/11 01:53:08;;;;;;;2.43;2.23;;;25.60;65.30;;;;;;5072192;28;20220;-66
2021/09/11 01:55:38;;;;;;;1.70;1.60;;;25.50;65.80;;;;;;5076701;28;20953;-66
2021/09/11 01:58:11;;;;;;;3.50;1.80;;;25.50;65.10;;;;;;5083139;28;20300;-67
2021/09/11 02:00:43;;;;;;;2.17;2.03;;;25.50;65.10;;;;;;5083323;28;20215;-66
2021/09/11 02:03:16;;;;;;;1.70;1.60;;;25.50;65.10;;;;;;5085868;28;20189;-66
2021/09/11 02:05:48;;;;;;;2.00;1.90;;;25.50;65.10;;;;;;5080600;28;20585;-66
2021/09/11 02:08:20;;;;;;;2.27;2.03;;;25.50;65.10;;;;;;5078784;28;20201;-66
2021/09/11 02:10:51;;;;;;;1.87;1.77;;;25.50;65.10;;;;;;5066456;28;20278;-66
2021/09/11 02:13:21;;;;;;;1.80;1.70;;;25.50;65.10;;;;;;5080189;28;20218;-66
2021/09/11 02:16:01;;;;;;;2.00;1.90;;;25.50;65.00;;;;;;5074108;28;20630;-66
2021/09/11 02:18:33;;;;;;;2.07;1.87;;;25.50;65.10;;;;;;5095899;28;20674;-66
2021/09/11 02:21:05;;;;;;;2.20;1.80;;;25.50;65.00;;;;;;5091639;28;20227;-66
2021/09/11 02:23:32;;;;;;;2.67;1.80;;;25.50;65.00;;;;;;5092193;28;20626;-66
2021/09/11 02:26:05;;;;;;;3.87;2.20;;;25.50;65.00;;;;;;5089517;28;20648;-66
2021/09/11 02:28:35;;;;;;;2.17;1.87;;;25.50;65.00;;;;;;5083973;28;20557;-67
2021/09/11 02:31:04;;;;;;;2.60;2.10;;;25.50;65.00;;;;;;5066376;28;20202;-66
2021/09/11 02:33:32;;;;;;;3.10;1.73;;;25.50;65.00;;;;;;5089484;28;20284;-66
2021/09/11 02:36:04;;;;;;;2.30;2.10;;;25.50;64.90;;;;;;5085644;28;20209;-66
2021/09/11 02:38:34;;;;;;;1.60;1.50;;;25.50;65.00;;;;;;5088715;28;20202;-66
2021/09/11 02:41:05;;;;;;;1.80;1.70;;;25.50;65.00;;;;;;5090785;28;20638;-66
2021/09/11 02:43:37;;;;;;;2.50;2.30;;;25.50;64.90;;;;;;5089577;28;20275;-66
2021/09/11 02:46:08;;;;;;;2.83;2.17;;;25.40;64.90;;;;;;5091589;28;20217;-66
2021/09/11 02:48:40;;;;;;;1.80;1.70;;;25.40;64.90;;;;;;5089199;28;20247;-66
2021/09/11 02:51:22;;;;;;;2.17;1.70;;;25.40;64.80;;;;;;5084811;28;20891;-66
2021/09/11 02:53:53;;;;;;;2.20;2.00;;;25.40;64.80;;;;;;5106348;28;20561;-66
2021/09/11 02:56:31;;;;;;;2.23;2.00;;;25.40;64.80;;;;;;5102688;27;20233;-66
2021/09/11 02:58:59;;;;;;;2.03;1.83;;;25.40;64.80;;;;;;5110483;27;20650;-66
2021/09/11 03:01:27;;;;;;;1.60;1.50;;;25.40;64.70;;;;;;5093421;28;20200;-66
2021/09/11 03:03:56;;;;;;;3.37;2.00;;;25.40;64.80;;;;;;5089147;28;20633;-67
2021/09/11 03:06:40;;;;;;;2.40;2.20;;;25.40;64.80;;;;;;5106388;28;20307;-66
2021/09/11 03:09:11;;;;;;;2.13;1.93;;;25.40;64.80;;;;;;5105826;27;20245;-66
2021/09/11 03:11:40;;;;;;;2.00;1.90;;;25.40;64.70;;;;;;5089782;28;20208;-66
2021/09/11 03:14:11;;;;;;;2.27;2.07;;;25.40;64.70;;;;;;5109377;27;20201;-66
2021/09/11 03:16:40;;;;;;;2.00;1.87;;;25.40;64.70;;;;;;5109872;28;20654;-66
2021/09/11 03:19:12;;;;;;;1.90;1.80;;;25.40;64.70;;;;;;5120925;27;20219;-66
2021/09/11 03:21:44;;;;;;;2.27;2.03;;;25.40;64.70;;;;;;5110236;27;20196;-66
2021/09/11 03:24:14;;;;;;;1.93;1.83;;;25.40;64.70;;;;;;5105868;27;20196;-66
2021/09/11 03:26:46;;;;;;;3.47;2.20;;;25.40;64.70;;;;;;5090182;28;20211;-67
2021/09/11 03:29:15;;;;;;;2.00;1.80;;;25.40;64.70;;;;;;5101874;27;20828;-66
2021/09/11 03:31:46;;;;;;;2.10;1.90;;;25.40;64.70;;;;;;5087548;28;20466;-66
2021/09/11 03:34:17;;;;;;;2.00;1.80;;;25.40;64.60;;;;;;5111014;27;20208;-66
2021/09/11 03:36:47;;;;;;;2.10;2.00;;;25.40;64.60;;;;;;5104829;28;20196;-66
2021/09/11 03:39:18;;;;;;;2.20;1.80;;;25.40;64.50;;;;;;5098570;28;20205;-66
2021/09/11 03:41:49;;;;;;;2.00;1.80;;;25.30;64.40;;;;;;5104277;28;20200;-67
2021/09/11 03:44:18;;;;;;;2.80;1.90;;;25.40;64.50;;;;;;5064414;28;20274;-66
2021/09/11 03:46:48;;;;;;;2.33;2.13;;;25.40;64.50;;;;;;5084718;28;20216;-66
2021/09/11 03:49:17;;;;;;;3.57;2.30;;;25.40;64.40;;;;;;5088638;28;20238;-66
2021/09/11 03:51:47;;;;;;;2.37;1.97;;;25.40;64.50;;;;;;5107682;28;20833;-66
2021/09/11 03:54:23;;;;;;;2.13;2.03;;;25.30;64.30;;;;;;5106119;27;20200;-66
2021/09/11 03:56:54;;;;;;;2.77;1.93;;;25.30;64.30;;;;;;5093640;27;20204;-66
2021/09/11 03:59:22;;;;;;;2.50;2.00;;;25.30;64.30;;;;;;5106818;27;20197;-66
2021/09/11 04:01:51;;;;;;;2.40;1.80;;;25.30;64.30;;;;;;5100623;27;20200;-66
2021/09/11 04:04:22;;;;;;;2.03;1.93;;;25.30;64.30;;;;;;5106363;27;20204;-66
2021/09/11 04:06:50;;;;;;;3.70;2.00;;;25.30;64.30;;;;;;5107335;27;20222;-66
2021/09/11 04:09:20;;;;;;;2.20;2.00;;;25.30;64.30;;;;;;5104386;28;20514;-66
2021/09/11 04:11:54;;;;;;;2.30;2.10;;;25.30;64.20;;;;;;5098428;27;20204;-66
2021/09/11 04:14:25;;;;;;;3.87;2.33;;;25.30;64.30;;;;;;5091133;28;20205;-66
2021/09/11 04:16:57;;;;;;;5.23;2.53;;;25.30;64.30;;;;;;5096113;28;20207;-66
2021/09/11 04:19:26;;;;;;;2.00;1.80;;;25.30;64.10;;;;;;5111655;27;20200;-66
2021/09/11 04:21:59;;;;;;;2.93;2.03;;;25.20;64.10;;;;;;5095131;28;20653;-66
2021/09/11 04:24:26;;;;;;;2.27;2.00;;;25.30;64.10;;;;;;5090970;28;20198;-66
2021/09/11 04:27:08;;;;;;;2.03;1.60;;;25.30;64.10;;;;;;5105175;27;20311;-66
2021/09/11 04:29:38;;;;;;;2.27;1.90;;;25.30;64.10;;;;;;5110261;28;20199;-66
2021/09/11 04:32:08;;;;;;;3.17;1.80;;;25.30;64.10;;;;;;5108841;27;20291;-66
2021/09/11 04:34:37;;;;;;;1.87;1.77;;;25.20;63.90;;;;;;5103613;28;20193;-66
2021/09/11 04:37:06;;;;;;;2.00;1.80;;;25.20;64.00;;;;;;5087169;28;20764;-66
2021/09/11 04:39:36;;;;;;;3.47;2.10;;;25.20;63.90;;;;;;5072125;28;20279;-66
2021/09/11 04:42:05;;;;;;;3.70;2.07;;;25.20;63.90;;;;;;5105964;27;20653;-66
2021/09/11 04:44:37;;;;;;;3.10;2.23;;;25.20;63.90;;;;;;5091986;28;20200;-66
2021/09/11 04:47:08;;;;;;;1.80;1.70;;;25.20;63.80;;;;;;5104860;28;20707;-66
2021/09/11 04:49:39;;;;;;;2.23;1.93;;;25.20;63.90;;;;;;5065907;27;20204;-66
2021/09/11 04:52:11;;;;;;;2.57;2.00;;;25.20;63.80;;;;;;5108599;27;20330;-66
2021/09/11 04:54:42;;;;;;;2.67;1.80;;;25.20;63.80;;;;;;5106574;27;20697;-66
2021/09/11 04:57:09;;;;;;;1.97;1.67;;;25.20;63.80;;;;;;5118302;27;20192;-66
2021/09/11 04:59:41;;;;;;;2.93;1.90;;;25.20;63.70;;;;;;5085840;28;20551;-66
2021/09/11 05:02:08;;;;;;;2.70;2.10;;;25.20;63.70;;;;;;5107715;27;20288;-69
2021/09/11 05:04:37;;;;;;;2.17;1.97;;;25.20;63.70;;;;;;5101655;28;20189;-68
2021/09/11 05:07:06;;;;;;;2.10;1.90;;;25.20;63.70;;;;;;5090361;28;20645;-69
2021/09/11 05:09:35;;;;;;;1.73;1.63;;;25.20;63.60;;;;;;5104714;27;20196;-68
2021/09/11 05:12:06;;;;;;;1.90;1.50;;;25.20;64.30;;;;;;5091922;28;20188;-68
2021/09/11 05:14:35;;;;;;;3.13;1.63;;;25.20;63.60;;;;;;5103450;28;20681;-68
2021/09/11 05:17:04;;;;;;;1.80;1.70;;;25.20;63.60;;;;;;5077998;28;20662;-68
2021/09/11 05:19:36;;;;;;;1.80;1.70;;;25.20;63.50;;;;;;5107177;27;20204;-68
2021/09/11 05:22:06;;;;;;;2.20;2.00;;;25.20;63.60;;;;;;5076168;28;20213;-68
2021/09/11 05:24:35;;;;;;;2.03;1.93;;;25.20;63.50;;;;;;5103641;28;20636;-68
2021/09/11 05:27:07;;;;;;;2.13;1.70;;;25.20;63.50;;;;;;5102725;28;20220;-68
2021/09/11 05:29:42;;;;;;;1.60;1.50;;;25.20;63.50;;;;;;5085220;28;20216;-68
2021/09/11 05:32:14;;;;;;;1.87;1.70;;;25.20;63.50;;;;;;5081599;28;20253;-68
2021/09/11 05:34:44;;;;;;;1.90;1.70;;;25.20;63.40;;;;;;5099410;27;20268;-68
2021/09/11 05:37:15;;;;;;;1.87;1.70;;;25.10;63.40;;;;;;5101948;28;20200;-68
2021/09/11 05:39:45;;;;;;;2.20;1.70;;;25.10;63.40;;;;;;5090233;28;20272;-68
2021/09/11 05:42:17;;;;;;;2.40;1.90;;;25.10;63.30;;;;;;5085301;28;20239;-68
2021/09/11 05:44:48;;;;;;;1.70;1.60;;;25.20;63.40;;;;;;5094769;28;20532;-67
2021/09/11 05:47:18;;;;;;;2.30;2.10;;;25.10;63.30;;;;;;5105412;28;20239;-68
2021/09/11 05:49:47;;;;;;;2.27;2.07;;;25.10;63.30;;;;;;5094657;28;20193;-68
2021/09/11 05:52:18;;;;;;;2.70;1.70;;;25.10;63.30;;;;;;5111662;27;20223;-67
2021/09/11 05:54:45;;;;;;;1.80;1.70;;;25.10;63.30;;;;;;5093749;28;20221;-67
2021/09/11 05:57:15;;;;;;;1.70;1.60;;;25.10;63.30;;;;;;5107919;28;20220;-68
2021/09/11 05:59:44;;;;;;;2.10;1.83;;;25.10;63.30;;;;;;5110570;27;20585;-68
2021/09/11 06:02:16;;;;;;;2.23;1.90;;;25.10;63.30;;;;;;5090516;28;20204;-67
2021/09/11 06:04:48;;;;;;;1.70;1.57;;;25.10;63.30;;;;;;5097617;28;20607;-68
2021/09/11 06:07:25;;;;;;;2.97;1.90;;;25.10;63.30;;;;;;5093580;28;20932;-68
2021/09/11 06:09:56;;;;;;;2.33;1.77;;;25.10;63.20;;;;;;5113405;28;20270;-68
2021/09/11 06:12:25;;;;;;;2.67;1.77;;;25.10;63.20;;;;;;5111933;27;20195;-68
2021/09/11 06:14:57;;;;;;;2.80;1.90;;;25.10;63.20;;;;;;5078763;27;20212;-68
2021/09/11 06:17:29;;;;;;;1.93;1.60;;;25.10;63.20;;;;;;5109851;28;20204;-68
2021/09/11 06:20:00;;;;;;;1.97;1.87;;;25.10;63.20;;;;;;5109059;27;20240;-68
2021/09/11 06:22:32;;;;;;;1.60;1.50;;;25.10;63.20;;;;;;5091014;28;20200;-68
2021/09/11 06:25:02;;;;;;;2.07;1.87;;;25.10;63.20;;;;;;5106575;27;20233;-68
2021/09/11 06:27:32;;;;;;;3.23;1.90;;;25.10;63.20;;;;;;5072106;28;20232;-68
2021/09/11 06:30:03;;;;;;;1.67;1.57;;;25.10;63.10;;;;;;5109221;28;20206;-68
2021/09/11 06:32:32;;;;;;;2.00;1.80;;;25.10;63.10;;;;;;5110528;27;20608;-68
2021/09/11 06:35:06;;;;;;;1.60;1.50;;;25.10;63.10;;;;;;5108067;28;20204;-67
2021/09/11 06:37:37;;;;;;;1.60;1.50;;;25.10;63.10;;;;;;5088424;28;20200;-68
2021/09/11 06:40:06;;;;;;;2.47;1.80;;;25.10;63.10;;;;;;5109183;27;20214;-68
2021/09/11 06:42:37;;;;;;;1.83;1.47;;;25.10;63.10;;;;;;5116757;27;20281;-68
2021/09/11 06:45:09;;;;;;;1.90;1.70;;;25.10;63.70;;;;;;5100816;27;20205;-68
2021/09/11 06:47:39;;;;;;;3.03;1.53;;;25.10;63.00;;;;;;5106073;28;20212;-67
2021/09/11 06:50:07;;;;;;;1.60;1.50;;;25.10;63.10;;;;;;5084579;28;20205;-68
2021/09/11 06:52:37;;;;;;;1.77;1.67;;;25.00;63.00;;;;;;5107127;28;20232;-68
2021/09/11 06:55:08;;;;;;;2.13;1.60;;;25.10;63.00;;;;;;5085675;28;20203;-68
2021/09/11 06:57:37;;;;;;;1.77;1.60;;;25.10;63.10;;;;;;5104012;28;20208;-68
2021/09/11 07:00:08;;;;;;;1.83;1.73;;;25.10;63.00;;;;;;5107718;27;20249;-68
2021/09/11 07:02:39;;;;;;;2.73;1.70;;;25.00;63.00;;;;;;5105563;28;20196;-68
2021/09/11 07:05:12;;;;;;;5.57;3.10;;;25.10;63.00;;;;;;5103158;27;20208;-68
2021/09/11 07:07:44;;;;;;;8.00;3.43;;;25.10;63.00;;;;;;5085120;28;20263;-68
2021/09/11 07:10:12;;;;;;;7.77;3.40;;;25.10;63.00;;;;;;5098782;27;20230;-70
2021/09/11 07:12:41;;;;;;;6.10;3.20;;;25.10;63.00;;;;;;5104003;28;20238;-68
2021/09/11 07:15:11;;;;;;;6.50;3.00;;;25.10;62.90;;;;;;5100378;28;20682;-68
2021/09/11 07:17:40;;;;;;;6.40;2.97;;;25.10;62.90;;;;;;5104055;27;20281;-70
2021/09/11 07:20:11;;;;;;;7.77;3.07;;;25.10;62.90;;;;;;5097743;27;20227;-69
2021/09/11 07:22:42;;;;;;;6.37;2.90;;;25.10;62.90;;;;;;5102699;28;20236;-69
2021/09/11 07:25:14;;;;;;;7.70;2.57;;;25.10;62.90;;;;;;5087317;28;20614;-69
2021/09/11 07:27:46;;;;;;;4.90;2.47;;;25.10;62.80;;;;;;5087940;28;20208;-69
2021/09/11 07:30:17;;;;;;;6.63;2.90;;;25.10;62.80;;;;;;5101712;27;20196;-69
2021/09/11 07:32:49;;;;;;;5.50;2.83;;;25.10;62.80;;;;;;5096745;28;20295;-69
2021/09/11 07:35:19;;;;;;;5.23;2.57;;;25.10;62.80;;;;;;5086720;28;20547;-69
2021/09/11 07:37:51;;;;;;;4.37;2.70;;;25.10;62.90;;;;;;5098736;27;20193;-69
2021/09/11 07:40:23;;;;;;;6.90;2.60;;;25.10;62.80;;;;;;5102561;28;20207;-69
2021/09/11 07:42:53;;;;;;;5.50;2.50;;;25.10;62.80;;;;;;5109605;28;20189;-69
2021/09/11 07:45:25;;;;;;;6.10;2.70;;;25.00;62.80;;;;;;5088105;28;20205;-69
2021/09/11 07:47:55;;;;;;;5.47;2.40;;;25.10;62.80;;;;;;5107723;28;20219;-69
2021/09/11 07:50:28;;;;;;;4.40;2.40;;;25.10;62.80;;;;;;5103771;27;20274;-69
2021/09/11 07:53:11;;;;;;;4.93;2.57;;;25.10;62.90;;;;;;5100598;28;20320;-69
2021/09/11 07:55:39;;;;;;;3.17;2.20;;;25.10;62.80;;;;;;5102500;28;20225;-69
2021/09/11 07:58:11;;;;;;;5.87;2.80;;;25.10;62.80;;;;;;5079453;28;20192;-69
2021/09/11 08:00:41;;;;;;;6.13;2.20;;;25.10;62.80;;;;;;5101223;28;20205;-69
2021/09/11 08:03:17;;;;;;;5.47;2.57;;;25.10;62.80;;;;;;5101465;28;20220;-69
2021/09/11 08:05:47;;;;;;;4.37;2.20;;;25.10;62.80;;;;;;5103030;28;20201;-68
2021/09/11 08:08:18;;;;;;;4.43;2.57;;;25.10;62.80;;;;;;5102521;27;20224;-69
2021/09/11 08:10:47;;;;;;;3.90;2.20;;;25.10;62.70;;;;;;5107298;27;20287;-68
2021/09/11 08:13:16;;;;;;;4.10;2.40;;;25.10;62.70;;;;;;5085463;27;20193;-68
2021/09/11 08:15:45;;;;;;;4.70;2.40;;;25.10;62.60;;;;;;5074609;28;20216;-69
2021/09/11 08:18:20;;;;;;;4.67;2.53;;;25.10;62.70;;;;;;5106622;27;20193;-68
2021/09/11 08:20:51;;;;;;;4.60;2.37;;;25.10;62.70;;;;;;5103863;28;20205;-68
2021/09/11 08:23:20;;;;;;;4.87;2.63;;;25.10;62.60;;;;;;5086695;28;20249;-68
2021/09/11 08:25:50;;;;;;;4.97;2.20;;;25.10;62.60;;;;;;5082797;28;20217;-69
2021/09/11 08:28:20;;;;;;;3.60;2.13;;;25.10;62.60;;;;;;5103002;28;20216;-68
2021/09/11 08:30:51;;;;;;;2.47;2.00;;;25.10;62.60;;;;;;5104782;28;20613;-68
2021/09/11 08:33:22;;;;;;;6.67;2.50;;;25.10;62.50;;;;;;5068749;28;20220;-69
2021/09/11 08:35:54;;;;;;;3.10;2.33;;;25.10;62.40;;;;;;5100703;28;20206;-68
2021/09/11 08:38:34;;;;;;;3.03;2.20;;;25.10;62.40;;;;;;5087421;28;20657;-68
2021/09/11 08:41:13;;;;;;;3.03;2.20;;;25.10;62.50;;;;;;5087996;28;20432;-68
2021/09/11 08:43:45;;;;;;;3.93;2.00;;;25.10;62.40;;;;;;5096269;28;20669;-69
2021/09/11 08:46:17;;;;;;;3.40;2.20;;;25.10;62.40;;;;;;5106393;28;20204;-70
2021/09/11 08:48:51;;;;;;;2.20;2.00;;;25.10;62.40;;;;;;5084394;28;20629;-70
2021/09/11 08:51:23;;;;;;;4.27;2.30;;;25.10;62.40;;;;;;5104566;27;20360;-69
2021/09/11 08:53:51;;;;;;;7.43;2.87;;;25.10;62.50;;;;;;5071568;28;20189;-69
2021/09/11 08:56:21;;;;;;;11.67;2.80;;;25.10;62.80;;;;;;5101973;28;20208;-69
2021/09/11 08:59:15;;;;;;;8.37;2.70;;;25.10;62.80;;;;;;5122502;27;20215;-69
2021/09/11 09:02:02;;;;;;;8.70;3.13;;;25.20;62.80;;;;;;5103146;27;20254;-68
2021/09/11 09:04:53;;;;;;;9.17;3.20;;;25.20;62.90;;;;;;5068323;28;20294;-68
2021/09/11 09:07:43;;;;;;;10.63;2.80;;;25.20;63.00;;;;;;5109296;27;20199;-68
2021/09/11 09:10:20;;;;;;;4.57;2.40;;;25.20;63.00;;;;;;5086546;28;20254;-69
2021/09/11 09:12:49;;;;;;;8.07;3.33;;;25.20;63.00;;;;;;5114471;27;20202;-69
2021/09/11 09:15:24;;;;;;;6.03;2.97;;;25.20;63.00;;;;;;5088087;28;20196;-68
2021/09/11 09:18:04;;;;;;;7.30;3.03;;;25.20;63.00;;;;;;5082489;28;20215;-69
2021/09/11 09:20:32;;;;;;;5.27;3.00;;;25.20;63.00;;;;;;5087565;28;20196;-68
2021/09/11 09:23:06;;;;;;;4.97;2.80;;;25.20;63.00;;;;;;5103334;28;20724;-68
2021/09/11 09:25:39;;;;;;;5.07;2.87;;;25.20;63.00;;;;;;5097419;28;20527;-68
2021/09/11 09:28:14;;;;;;;5.00;3.03;;;25.20;62.90;;;;;;5081544;28;20576;-68
2021/09/11 09:30:50;;;;;;;5.37;3.27;;;25.20;62.80;;;;;;5103414;28;20211;-68
2021/09/11 09:33:29;;;;;;;5.40;3.67;;;25.20;62.80;;;;;;5084050;28;20212;-68
2021/09/11 09:36:01;;;;;;;9.43;3.30;;;25.20;62.90;;;;;;5088765;28;20266;-67
2021/09/11 09:38:33;;;;;;;7.13;3.17;;;25.20;62.90;;;;;;5090109;28;20211;-68
2021/09/11 09:41:20;;;;;;;5.13;3.37;;;25.20;63.00;;;;;;5093488;28;20200;-68
2021/09/11 09:43:48;;;;;;;9.73;3.60;;;25.30;63.00;;;;;;5104892;28;20841;-68
2021/09/11 09:46:20;;;;;;;6.07;3.60;;;25.20;62.90;;;;;;5080529;28;20188;-67
2021/09/11 09:48:59;;;;;;;8.00;3.57;;;25.20;62.80;;;;;;5101380;28;20266;-69
2021/09/11 09:51:31;;;;;;;7.87;3.43;;;25.30;62.70;;;;;;5076517;28;20914;-67
2021/09/11 09:54:03;;;;;;;5.37;3.63;;;25.30;62.60;;;;;;5098377;28;20536;-67
2021/09/11 09:56:35;;;;;;;7.80;3.67;;;25.30;62.60;;;;;;5079372;28;20291;-67
2021/09/11 09:59:27;;;;;;;6.60;4.23;;;25.30;62.50;;;;;;5094218;28;20809;-68
2021/09/11 10:01:57;;;;;;;6.67;4.03;;;25.30;62.50;;;;;;5105972;28;20215;-67
2021/09/11 10:04:28;;;;;;;5.03;3.87;;;25.30;62.40;;;;;;5106285;28;20645;-67
2021/09/11 10:07:06;;;;;;;5.47;4.03;;;25.30;62.40;;;;;;5106689;28;20192;-66
2021/09/11 10:09:37;;;;;;;7.73;4.20;;;25.30;62.30;;;;;;5109771;28;20234;-67
2021/09/11 10:12:41;;;;;;;6.03;3.87;;;25.30;62.40;;;;;;5081896;28;20247;-67
2021/09/11 10:15:35;;;;;;;7.40;4.50;;;25.30;62.50;;;;;;5101223;28;20204;-67
2021/09/11 10:18:37;;;;;;;9.30;4.60;;;25.30;62.50;;;;;;5093085;28;20193;-67
2021/09/11 10:21:38;;;;;;;6.67;4.70;;;25.30;62.40;;;;;;5103477;28;20644;-67
2021/09/11 10:24:17;;;;;;;8.90;4.20;;;25.30;62.40;;;;;;5100031;28;20573;-68
2021/09/11 10:27:08;;;;;;;10.03;4.40;;;25.30;62.50;;;;;;5101484;28;20189;-67
2021/09/11 10:29:54;;;;;;;4.93;3.90;;;25.30;62.60;;;;;;5089144;28;20748;-67
2021/09/11 10:32:37;;;;;;;8.37;4.00;;;25.30;62.80;;;;;;5084661;28;20191;-67
2021/09/11 10:35:08;;;;;;;7.97;4.10;;;25.40;63.30;;;;;;5105166;28;20569;-67
2021/09/11 10:37:50;;;;;;;6.87;3.40;;;25.40;63.70;;;;;;5109209;28;20192;-67
2021/09/11 10:40:42;;;;;;;5.27;3.40;;;25.40;64.00;;;;;;5110286;28;20200;-67
2021/09/11 10:43:32;;;;;;;16.90;3.77;;;25.40;64.40;;;;;;5104885;28;20663;-68
2021/09/11 10:46:11;;;;;;;7.13;3.77;;;25.40;64.60;;;;;;5109562;28;20192;-68
2021/09/11 10:48:45;;;;;;;9.23;3.93;;;25.50;64.80;;;;;;5091211;28;20769;-67
2021/09/11 10:51:33;;;;;;;6.83;3.73;;;25.50;65.10;;;;;;5111532;28;20177;-68
2021/09/11 10:54:22;;;;;;;7.67;3.70;;;25.50;65.20;;;;;;5111320;28;20544;-67
2021/09/11 10:57:16;;;;;;;5.87;4.07;;;25.60;65.20;;;;;;5109823;27;20192;-68
2021/09/11 10:59:51;;;;;;;8.37;4.27;;;25.60;65.30;;;;;;5082463;28;20511;-67
2021/09/11 11:02:37;;;;;;;11.10;4.13;;;25.60;65.20;;;;;;5108142;28;20627;-67
2021/09/11 11:05:12;;;;;;;8.07;3.97;;;25.70;65.30;;;;;;5110541;28;20290;-67
2021/09/11 11:07:47;;;;;;;9.83;4.47;;;25.70;65.30;;;;;;5091665;28;20315;-67
2021/09/11 11:10:28;;;;;;;9.63;4.70;;;25.70;65.30;;;;;;5091188;28;20300;-67
2021/09/11 11:13:02;;;;;;;7.20;4.53;;;25.70;65.20;;;;;;5107353;28;20638;-68
2021/09/11 11:15:30;;;;;;;10.50;4.87;;;25.70;65.20;;;;;;5087793;28;20204;-68
2021/09/11 11:18:04;;;;;;;9.33;5.13;;;25.70;65.10;;;;;;5101241;28;20666;-67
2021/09/11 11:20:35;;;;;;;8.07;4.60;;;25.80;65.00;;;;;;5106146;28;20207;-68
2021/09/11 11:23:06;;;;;;;8.17;4.87;;;25.80;64.80;;;;;;5102308;28;20192;-67
2021/09/11 11:25:39;;;;;;;9.50;4.90;;;25.80;64.60;;;;;;5109129;27;20725;-68
2021/09/11 11:28:13;;;;;;;9.50;4.63;;;25.80;64.40;;;;;;5102246;28;20246;-67
2021/09/11 11:30:50;;;;;;;7.97;4.57;;;25.90;64.30;;;;;;5110144;28;20633;-67
2021/09/11 11:33:21;;;;;;;8.70;4.53;;;25.90;64.10;;;;;;5093314;28;20295;-67
2021/09/11 11:35:52;;;;;;;9.17;4.40;;;25.90;64.00;;;;;;5104992;28;20192;-68
2021/09/11 11:38:26;;;;;;;8.63;5.07;;;25.90;63.90;;;;;;5095180;28;20207;-68
2021/09/11 11:41:05;;;;;;;10.33;4.60;;;25.90;63.80;;;;;;5106204;27;20673;-68
2021/09/11 11:43:33;;;;;;;9.57;5.10;;;25.90;63.80;;;;;;5094175;28;20700;-68
2021/09/11 11:46:02;;;;;;;7.73;4.73;;;26.00;63.80;;;;;;5107128;28;20184;-70
2021/09/11 11:48:36;;;;;;;9.27;4.63;;;26.00;63.90;;;;;;5097343;28;20221;-68
2021/09/11 11:51:12;;;;;;;11.00;5.00;;;26.00;64.10;;;;;;5082104;28;20223;-67
2021/09/11 11:53:44;;;;;;;9.97;4.63;;;26.00;64.40;;;;;;5052063;28;20918;-65
2021/09/11 11:56:16;;;;;;;7.07;4.53;;;26.00;64.70;;;;;;5101623;28;20277;-65
2021/09/11 11:58:59;;;;;;;9.50;4.53;;;26.00;64.90;;;;;;5105286;28;20240;-65
2021/09/11 12:01:29;;;;;;;7.90;4.70;;;26.10;64.40;;;;;;5109724;28;20645;-65
2021/09/11 12:03:58;;;;;;;6.43;4.70;;;26.00;65.30;;;;;;5087189;28;20208;-68
2021/09/11 12:06:29;;;;;;;8.87;5.07;;;26.00;65.70;;;;;;5105596;28;20224;-65
2021/09/11 12:09:04;;;;;;;10.67;5.97;;;26.00;65.90;;;;;;5106088;28;20223;-65
2021/09/11 12:11:37;;;;;;;9.23;5.23;;;26.10;66.70;;;;;;5091406;28;20274;-66
2021/09/11 12:14:08;;;;;;;7.70;4.80;;;26.00;67.30;;;;;;5098754;28;20216;-65
2021/09/11 12:16:35;;;;;;;13.37;5.20;;;26.00;68.30;;;;;;5076809;28;20612;-67
2021/09/11 12:19:20;;;;;;;10.33;4.93;;;26.00;68.20;;;;;;5080708;28;20207;-66
2021/09/11 12:21:50;;;;;;;7.47;5.00;;;26.10;68.10;;;;;;5093099;28;20217;-65
2021/09/11 12:24:28;;;;;;;10.07;5.13;;;26.00;68.10;;;;;;5100183;28;20283;-66
2021/09/11 12:27:16;;;;;;;6.23;4.70;;;26.10;68.90;;;;;;5087743;28;20214;-66
2021/09/11 12:30:07;;;;;;;6.63;4.77;;;26.00;68.00;;;;;;5091542;27;20216;-66
2021/09/11 12:32:49;;;;;;;7.93;5.60;;;26.00;68.70;;;;;;5107060;28;20192;-66
2021/09/11 12:35:32;;;;;;;5.87;4.73;;;26.00;68.90;;;;;;5077496;28;20232;-66
2021/09/11 12:38:03;;;;;;;7.40;5.43;;;26.00;69.10;;;;;;5099588;28;20257;-66
2021/09/11 12:40:32;;;;;;;7.27;4.67;;;26.00;69.20;;;;;;5076831;28;20204;-66
2021/09/11 12:43:03;;;;;;;6.80;5.00;;;26.00;69.30;;;;;;5109521;28;20597;-66
2021/09/11 12:45:33;;;;;;;5.30;4.13;;;25.90;69.40;;;;;;5100708;28;20204;-66
2021/09/11 12:48:05;;;;;;;4.60;4.20;;;25.90;69.40;;;;;;5109020;28;20215;-66
2021/09/11 12:50:35;;;;;;;7.47;5.00;;;25.90;69.60;;;;;;5110886;27;20242;-66
2021/09/11 12:53:03;;;;;;;8.40;5.33;;;25.90;69.60;;;;;;5078675;28;20244;-66
2021/09/11 12:55:34;;;;;;;5.20;4.30;;;25.90;69.60;;;;;;5069280;28;20193;-65
2021/09/11 12:58:17;;;;;;;5.90;4.10;;;25.90;69.80;;;;;;5073075;28;20289;-64
2021/09/11 13:00:49;;;;;;;6.33;4.03;;;25.90;69.30;;;;;;5088484;28;20201;-64
2021/09/11 13:03:17;;;;;;;7.47;3.70;;;25.90;69.40;;;;;;5056029;28;20209;-64
2021/09/11 13:05:49;;;;;;;5.30;3.17;;;25.90;68.30;;;;;;5082047;28;20196;-64
2021/09/11 13:08:24;;;;;;;3.67;3.13;;;25.90;67.40;;;;;;5081063;28;20603;-64
2021/09/11 13:10:56;;;;;;;3.40;3.10;;;25.80;66.60;;;;;;5084877;28;20690;-65
2021/09/11 13:13:25;;;;;;;5.27;3.40;;;25.70;66.80;;;;;;5082180;28;20615;-65
2021/09/11 13:15:57;;;;;;;5.37;3.40;;;25.70;66.70;;;;;;5079481;28;20207;-64